Map

Track Data

SID SEASON NUMBER BASIN SUBBASIN NAME ISO_TIME NATURE LAT LON WMO_WIND WMO_PRES WMO_AGENCY TRACK_TYPE DIST2LAND LANDFALL IFLAG USA_AGENCY USA_ATCF_ID USA_LAT USA_LON USA_RECORD USA_STATUS USA_WIND USA_PRES USA_SSHS USA_R34_NE USA_R34_SE USA_R34_SW USA_R34_NW USA_R50_NE USA_R50_SE USA_R50_SW USA_R50_NW USA_R64_NE USA_R64_SE USA_R64_SW USA_R64_NW USA_POCI USA_ROCI USA_RMW USA_EYE TOKYO_LAT TOKYO_LON TOKYO_GRADE TOKYO_WIND TOKYO_PRES TOKYO_R50_DIR TOKYO_R50_LONG TOKYO_R50_SHORT TOKYO_R30_DIR TOKYO_R30_LONG TOKYO_R30_SHORT TOKYO_LAND CMA_LAT CMA_LON CMA_CAT CMA_WIND CMA_PRES HKO_LAT HKO_LON HKO_CAT HKO_WIND HKO_PRES NEWDELHI_LAT NEWDELHI_LON NEWDELHI_GRADE NEWDELHI_WIND NEWDELHI_PRES NEWDELHI_CI NEWDELHI_DP NEWDELHI_POCI REUNION_LAT REUNION_LON REUNION_TYPE REUNION_WIND REUNION_PRES REUNION_TNUM REUNION_CI REUNION_RMW REUNION_R34_NE REUNION_R34_SE REUNION_R34_SW REUNION_R34_NW REUNION_R50_NE REUNION_R50_SE REUNION_R50_SW REUNION_R50_NW REUNION_R64_NE REUNION_R64_SE REUNION_R64_SW REUNION_R64_NW BOM_LAT BOM_LON BOM_TYPE BOM_WIND BOM_PRES BOM_TNUM BOM_CI BOM_RMW BOM_R34_NE BOM_R34_SE BOM_R34_SW BOM_R34_NW BOM_R50_NE BOM_R50_SE BOM_R50_SW BOM_R50_NW BOM_R64_NE BOM_R64_SE BOM_R64_SW BOM_R64_NW BOM_ROCI BOM_POCI BOM_EYE BOM_POS_METHOD BOM_PRES_METHOD NADI_LAT NADI_LON NADI_CAT NADI_WIND NADI_PRES WELLINGTON_LAT WELLINGTON_LON WELLINGTON_WIND WELLINGTON_PRES DS824_LAT DS824_LON DS824_STAGE DS824_WIND DS824_PRES TD9636_LAT TD9636_LON TD9636_STAGE TD9636_WIND TD9636_PRES TD9635_LAT TD9635_LON TD9635_WIND TD9635_PRES TD9635_ROCI NEUMANN_LAT NEUMANN_LON NEUMANN_CLASS NEUMANN_WIND NEUMANN_PRES MLC_LAT MLC_LON MLC_CLASS MLC_WIND MLC_PRES USA_GUST BOM_GUST BOM_GUST_PER REUNION_GUST REUNION_GUST_PER USA_SEAHGT USA_SEARAD_NE USA_SEARAD_SE USA_SEARAD_SW USA_SEARAD_NW STORM_SPEED STORM_DIR
1962314S20166 1963 102 SP MM NOT_NAMED 1962-11-10 00:00:00 TS -19.9000 166.200 main 144 118 O________OO_O_ jtwc_sh SH031963 -19.9000 166.200 -1 -19.9000 166.200 TC 35 -19.9000 166.200 2 -19.9000 166.200 TC 35 25 140
1962314S20166 1963 102 SP MM NOT_NAMED 1962-11-10 03:00:00 TS -20.8429 167.033 main 118 98 P________PP_P_ SH031963 -20.9083 167.045 -1 -20.9083 167.045 TC 35 -20.7918 167.068 2 -20.7630 166.974 TC 35 24 139
1962314S20166 1963 102 SP MM NOT_NAMED 1962-11-10 06:00:00 TS -21.7088 167.883 main 108 102 O________OP_O_ jtwc_sh SH031963 -21.8000 167.900 -1 -21.8000 167.900 TC 35 -21.6353 167.933 2 -21.6000 167.800 TC 35 23 135
1962314S20166 1963 102 SP MM NOT_NAMED 1962-11-10 09:00:00 TS -22.4350 168.750 main 175 175 P________PP_P_ SH031963 -22.4896 168.758 -1 -22.4896 168.758 TC 35 -22.3860 168.782 2 -22.3749 168.700 TC 35 21 129
1962314S20166 1963 102 SP MM NOT_NAMED 1962-11-10 12:00:00 TS -23.0000 169.600 main 277 277 O________OO_O_ jtwc_sh SH031963 -23.0000 169.600 -1 -23.0000 169.600 TC 35 -23.0000 169.600 2 -23.0000 169.600 TC 35 18 123
1962314S20166 1963 102 SP MM NOT_NAMED 1962-11-10 15:00:00 TS -23.4175 170.403 main 369 369 P________PP_P_ SH031963 -23.4020 170.408 -1 -23.4020 170.408 TC 35 -23.4494 170.379 2 -23.4168 170.416 TC 35 16 116
1962314S20166 1963 102 SP MM NOT_NAMED 1962-11-10 18:00:00 TS -23.7169 171.187 main 457 457 O________OP_O_ jtwc_sh SH031963 -23.7000 171.200 -1 -23.7000 171.200 TC 35 -23.7675 171.146 2 -23.7000 171.200 TC 35 15 112
1962314S20166 1963 102 SP MM NOT_NAMED 1962-11-10 21:00:00 TS -23.9791 171.957 main 545 545 P________PP_P_ SH031963 -23.9714 171.963 -1 -23.9714 171.963 TC 35 -24.0021 171.940 2 -23.9714 171.963 TC 35 16 108
1962314S20166 1963 102 SP MM NOT_NAMED 1962-11-11 00:00:00 TS -24.2000 172.800 main 629 629 O________OO_O_ jtwc_sh SH031963 -24.2000 172.800 -1 -24.2000 172.800 TC 35 -24.2000 172.800 2 -24.2000 172.800 TC 35 18 104
1962314S20166 1963 102 SP MM NOT_NAMED 1962-11-11 03:00:00 TS -24.4094 173.820 main 732 732 P________PP_P_ SH031963 -24.4075 173.813 -1 -24.4075 173.813 TC 35 -24.4152 173.840 2 -24.4075 173.813 TC 37 20 102
1962314S20166 1963 102 SP MM NOT_NAMED 1962-11-11 06:00:00 TS -24.6010 174.910 main 768 747 O________OP_O_ jtwc_sh SH031963 -24.6000 174.900 -1 -24.6000 174.900 TC 35 -24.6041 174.939 2 -24.6000 174.900 TC 40 20 101
1962314S20166 1963 102 SP MM NOT_NAMED 1962-11-11 09:00:00 TS -24.7901 175.997 main 752 745 P________PP_P_ SH031963 -24.7850 175.988 -1 -24.7850 175.988 TC 35 -24.7904 176.019 2 -24.8001 175.995 TC 42 19 102
1962314S20166 1963 102 SP MM NOT_NAMED 1962-11-11 12:00:00 TS -25.0000 177.000 main 754 752 O________OO_O_ jtwc_sh SH031963 -25.0000 177.000 -1 -25.0000 177.000 TC 35 -25.0000 177.000 2 -25.0000 177.000 TC 45 17 105
1962314S20166 1963 102 SP MM NOT_NAMED 1962-11-11 15:00:00 TS -25.2476 177.852 main 771 771 P________PP_P_ SH031963 -25.2844 177.875 -1 -25.2844 177.875 TC 35 -25.2525 177.840 2 -25.1692 177.818 TC 45 15 111
1962314S20166 1963 102 SP MM NOT_NAMED 1962-11-11 18:00:00 TS -25.5343 178.567 main 806 806 O________OP_O_ jtwc_sh SH031963 -25.6000 178.600 -1 -25.6000 178.600 TC 35 -25.5373 178.568 2 -25.4000 178.500 TC 45 14 116
1962314S20166 1963 102 SP MM NOT_NAMED 1962-11-11 21:00:00 TS -25.8481 179.197 main 844 844 P________PP_P_ SH031963 -25.8846 179.218 -1 -25.8846 179.218 TC 35 -25.8535 179.187 2 -25.7699 179.167 TC 47 12 123
1962314S20166 1963 102 SP MM NOT_NAMED 1962-11-12 00:00:00 TS -26.2000 179.700 main 896 896 O________OO_O_ jtwc_sh SH031963 -26.2000 179.700 -1 -26.2000 179.700 TC 35 -26.2000 179.700 2 -26.2000 179.700 TC 50 11 133
1962314S20166 1963 102 SP MM NOT_NAMED 1962-11-12 03:00:00 TS -26.5897 180.088 main 948 948 P________PP_P_ SH031963 -26.5847 -179.912 -1 -26.5847 -179.912 TC 35 -26.5898 -179.861 2 -26.5995 -179.962 TC 50 10 142
1962314S20166 1963 102 SP MM NOT_NAMED 1962-11-12 06:00:00 TS -27.0014 180.395 main 998 998 O________OP_O_ jtwc_sh SH031963 -27.0000 -179.600 -1 -27.0000 180.400 TC 35 -27.0054 -179.521 2 -27.0000 -179.700 TC 50 10 146
1962314S20166 1963 102 SP MM NOT_NAMED 1962-11-12 09:00:00 TS -27.4158 180.710 main 1048 1048 P________PP_P_ SH031963 -27.4149 -179.285 -1 -27.4149 -179.285 TC 35 -27.4184 -179.246 2 -27.4151 -179.343 TC 50 10 146
1962314S20166 1963 102 SP MM NOT_NAMED 1962-11-12 12:00:00 TS -27.8000 181.000 main 1048 1033 O________OO_O_ jtwc_sh SH031963 -27.8000 -179.000 -1 -27.8000 181.000 TC 35 -27.8000 -179.000 2 -27.8000 -179.000 TC 50 9 146
1962314S20166 1963 102 SP MM NOT_NAMED 1962-11-12 15:00:00 TS -28.1244 181.259 main 1039 1025 P________PP_P_ SH031963 -28.1224 -178.742 -1 -28.1224 -178.742 TC 35 -28.1306 -178.744 2 -28.1224 -178.735 TC 47 8 144
1962314S20166 1963 102 SP MM NOT_NAMED 1962-11-12 18:00:00 TS -28.4060 181.498 main 1025 1012 O________OP_O_ jtwc_sh SH031963 -28.4000 -178.500 -1 -28.4000 181.500 TC 35 -28.4241 -178.506 2 -28.4000 -178.500 TC 45 7 143
1962314S20166 1963 102 SP MM NOT_NAMED 1962-11-12 21:00:00 TS -28.6744 181.735 main 1012 1009 P________PP_P_ SH031963 -28.6724 -178.265 -1 -28.6724 -178.265 TC 35 -28.6806 -178.266 2 -28.6724 -178.265 TC 42 7 138
1962314S20166 1963 102 SP MM NOT_NAMED 1962-11-13 00:00:00 TS -28.9000 182.000 main 1016 1014 O________OO_O_ jtwc_sh SH031963 -28.9000 -178.000 -1 -28.9000 182.000 TC 35 -28.9000 -178.000 2 -28.9000 -178.000 TC 40 7 127
1962314S20166 1963 102 SP MM NOT_NAMED 1962-11-13 03:00:00 TS -29.0683 182.339 main 1017 1017 P________PP_P_ SH031963 -29.0650 -177.665 -1 -29.0650 -177.665 TC 35 -29.0783 -177.650 2 -29.0650 -177.665 TC 37 7 116
1962314S20166 1963 102 SP MM NOT_NAMED 1962-11-13 06:00:00 TS -29.2058 182.706 main 1020 1013 O________OP_O_ jtwc_sh SH031963 -29.2000 -177.300 -1 -29.2000 182.700 TC 35 -29.2232 -177.277 2 -29.2000 -177.300 TC 35 7 114
1962314S20166 1963 102 SP MM NOT_NAMED 1962-11-13 09:00:00 TS -29.3498 183.075 main 1024 1011 P________PP_P_ SH031963 -29.3501 -176.928 -1 -29.3501 -176.928 TC 35 -29.3564 -176.916 2 -29.3426 -176.927 TC 35 7 116
1962314S20166 1963 102 SP MM NOT_NAMED 1962-11-13 12:00:00 TS -29.5000 183.400 main 1015 1009 O________OO_O_ jtwc_sh SH031963 -29.5000 -176.600 -1 -29.5000 183.400 TC 35 -29.5000 -176.600 2 -29.5000 -176.600 TC 35 6 122
1962314S20166 1963 102 SP MM NOT_NAMED 1962-11-13 15:00:00 TS -29.6495 183.618 main 1013 998 P________PP_P_ SH031963 -29.6349 -176.370 -1 -29.6349 -176.370 TC 35 -29.6358 -176.417 2 -29.6924 -176.370 TC 35 5 134
1962314S20166 1963 102 SP MM NOT_NAMED 1962-11-13 18:00:00 TS -29.8234 183.781 main 1002 987 O________OP_O_ jtwc_sh SH031963 -29.8000 -176.200 -1 -29.8000 183.800 TC 35 -29.7934 -176.276 2 -29.9000 -176.200 TC 35 4 146
1962314S20166 1963 102 SP MM NOT_NAMED 1962-11-13 21:00:00 TS -30.0171 183.904 main 987 967 P________PP_P_ SH031963 -30.0047 -176.087 -1 -30.0047 -176.087 TC 35 -30.0044 -176.122 2 -30.0547 -176.087 TC 35 6 150
1962314S20166 1963 102 SP MM NOT_NAMED 1962-11-14 00:00:00 TS -30.3000 184.100 main 967 949 O________OO_O_ jtwc_sh SH031963 -30.3000 -175.900 -1 -30.3000 184.100 TC 35 -30.3000 -175.900 2 -30.3000 -175.900 TC 35 9 143
1962314S20166 1963 102 SP MM NOT_NAMED 1962-11-14 03:00:00 TS -30.7172 184.508 main 949 925 P________PP_P_ SH031963 -30.7052 -175.495 -1 -30.7052 -175.495 TC 35 -30.7031 -175.483 2 -30.7552 -175.496 TC 35 12 140
1962314S20166 1963 102 SP MM NOT_NAMED 1962-11-14 06:00:00 TS -31.2225 185.001 main 931 911 O________OP_O_ jtwc_sh SH031963 -31.2000 -175.000 -1 -31.2000 185.000 TC 35 -31.1898 -174.997 2 -31.3000 -175.000 TC 35 13 141
1962314S20166 1963 102 SP MM NOT_NAMED 1962-11-14 09:00:00 TS -31.7485 185.482 main 917 895 P________PP_P_ SH031963 -31.7351 -174.520 -1 -31.7351 -174.520 TC 35 -31.7313 -174.512 2 -31.7926 -174.520 TC 35 13 145
1962314S20166 1963 102 SP MM NOT_NAMED 1962-11-14 12:00:00 TS -32.3000 185.900 main 895 878 O________OO_O_ jtwc_sh SH031963 -32.3000 -174.100 -1 -32.3000 185.900 TC 35 -32.3000 -174.100 2 -32.3000 -174.100 TC 35 13 151
1962314S20166 1963 102 SP MM NOT_NAMED 1962-11-14 15:00:00 TS -32.8483 186.203 main 878 850 P________PP_P_ SH031963 -32.8423 -173.790 -1 -32.8423 -173.790 TC 35 -32.8736 -173.818 2 -32.8348 -173.790 TC 35 12 160
1962314S20166 1963 102 SP MM NOT_NAMED 1962-11-14 18:00:00 TS -33.4121 186.388 main 851 820 O________OP_O_ jtwc_sh SH031963 -33.4000 -173.600 -1 -33.4000 186.400 TC 35 -33.4483 -173.649 2 -33.4000 -173.600 TC 35 12 169
1962314S20166 1963 102 SP MM NOT_NAMED 1962-11-14 21:00:00 TS -33.9991 186.471 main 820 787 P________PP_P_ SH031963 -33.9900 -173.520 -1 -33.9900 -173.520 TC 35 -34.0239 -173.556 2 -33.9925 -173.520 TC 35 12 176
1962314S20166 1963 102 SP MM NOT_NAMED 1962-11-15 00:00:00 TS -34.6000 186.500 main 787 O________OO_O_ jtwc_sh SH031963 -34.6000 -173.500 -1 -34.6000 186.500 TC 35 -34.6000 -173.500 2 -34.6000 -173.500 TC 35 12 178

Digital Typhoon Data and Search

About IBTrACS Database

This database is a web-friendly format of International Best Track Archive for Climate Stewardship (IBTrACS), a global best track data archive curated by NOAA dating back to 1842.

Updated: 2021-11-26